Time;durP1;ratioP1;P1;durP2;ratioP2;P2;SDS_P1;SDS_P2;PMS_P1;PMS_P2;Temp;Humidity;BMP_temperature;BMP_pressure;BME280_temperature;BME280_humidity;BME280_pressure;Samples;Min_cycle;Max_cycle;Signal;HPM_P1;HPM_P2
2023/03/19 00:01:07;;;;;;;18.85;5.85;;;7.90;99.90;;;;;;4984056;28;20038;-77
2023/03/19 00:03:33;;;;;;;14.32;5.70;;;7.80;99.90;;;;;;4981108;28;20038;-77
2023/03/19 00:05:59;;;;;;;9.30;4.43;;;7.70;99.90;;;;;;4962654;28;20354;-76
2023/03/19 00:08:25;;;;;;;8.50;4.55;;;7.70;99.90;;;;;;4977864;28;20489;-77
2023/03/19 00:10:51;;;;;;;14.88;5.18;;;7.60;99.90;;;;;;4980730;28;20062;-78
2023/03/19 00:13:17;;;;;;;9.73;4.43;;;7.50;99.90;;;;;;4961188;28;20507;-78
2023/03/19 00:15:43;;;;;;;8.60;4.07;;;7.40;99.90;;;;;;4963869;28;20122;-78
2023/03/19 00:18:09;;;;;;;13.88;4.13;;;7.40;99.90;;;;;;4982880;28;20105;-77
2023/03/19 00:20:35;;;;;;;10.00;3.67;;;7.30;99.90;;;;;;4964624;28;20046;-77
2023/03/19 00:23:01;;;;;;;9.70;3.72;;;7.30;99.90;;;;;;4976128;28;20072;-77
2023/03/19 00:25:26;;;;;;;10.27;4.05;;;7.30;99.90;;;;;;4984354;28;20125;-78
2023/03/19 00:27:53;;;;;;;8.73;4.22;;;7.20;99.90;;;;;;4980592;28;20338;-78
2023/03/19 00:30:20;;;;;;;8.23;3.88;;;7.20;99.90;;;;;;4982714;28;20054;-78
2023/03/19 00:32:47;;;;;;;9.03;3.50;;;7.20;99.90;;;;;;4636114;28;10000324;-78
2023/03/19 00:35:12;;;;;;;10.45;4.32;;;7.20;99.90;;;;;;4981153;28;20272;-78
2023/03/19 00:37:38;;;;;;;10.57;4.38;;;7.10;99.90;;;;;;4973400;28;20387;-77
2023/03/19 00:40:04;;;;;;;8.20;3.90;;;7.20;99.90;;;;;;4980761;28;20088;-78
2023/03/19 00:42:30;;;;;;;7.07;3.95;;;7.10;99.90;;;;;;4975263;28;20033;-78
2023/03/19 00:44:56;;;;;;;12.55;4.60;;;7.10;99.90;;;;;;4963405;28;20031;-78
2023/03/19 00:47:22;;;;;;;6.75;4.22;;;7.10;99.90;;;;;;4976159;28;20026;-78
2023/03/19 00:49:48;;;;;;;8.63;4.30;;;7.10;99.90;;;;;;4970694;28;20105;-78
2023/03/19 00:52:14;;;;;;;11.02;4.63;;;7.20;99.90;;;;;;4976879;28;20287;-79
2023/03/19 00:54:40;;;;;;;10.95;4.88;;;7.30;99.90;;;;;;4966073;28;20042;-77
2023/03/19 00:57:06;;;;;;;10.95;5.20;;;7.50;99.90;;;;;;4977509;28;20041;-78
2023/03/19 00:59:32;;;;;;;14.95;4.97;;;7.60;99.90;;;;;;4982822;28;20580;-78
2023/03/19 01:01:58;;;;;;;13.82;4.70;;;7.70;99.90;;;;;;4979594;28;20075;-78
2023/03/19 01:04:23;;;;;;;12.52;4.90;;;7.80;99.90;;;;;;4976659;28;20101;-78
2023/03/19 01:06:49;;;;;;;10.77;4.65;;;7.90;99.90;;;;;;4979308;28;20136;-78
2023/03/19 01:09:15;;;;;;;9.43;4.50;;;8.00;99.90;;;;;;4987795;28;20041;-78
2023/03/19 01:11:40;;;;;;;11.27;4.50;;;8.10;99.90;;;;;;4967271;28;20046;-78
2023/03/19 01:14:06;;;;;;;7.20;3.80;;;8.10;99.90;;;;;;4963845;28;20226;-78
2023/03/19 01:16:33;;;;;;;8.73;3.75;;;8.20;99.90;;;;;;4968114;28;20037;-78
2023/03/19 01:19:00;;;;;;;6.35;3.33;;;8.30;99.90;;;;;;5003495;28;20579;-78
2023/03/19 01:21:26;;;;;;;10.98;4.00;;;8.40;99.90;;;;;;4996422;28;20121;-78
2023/03/19 01:23:52;;;;;;;7.32;3.53;;;8.50;99.90;;;;;;4978087;28;20026;-78
2023/03/19 01:26:18;;;;;;;7.20;3.38;;;8.50;99.90;;;;;;4984163;28;20030;-78
2023/03/19 01:28:44;;;;;;;10.80;3.13;;;8.60;99.90;;;;;;4977922;28;20026;-78
2023/03/19 01:31:10;;;;;;;7.20;2.92;;;8.70;99.90;;;;;;4980801;28;20539;-78
2023/03/19 01:33:36;;;;;;;6.18;2.95;;;8.70;99.90;;;;;;4975343;28;20434;-78
2023/03/19 01:36:03;;;;;;;8.23;2.83;;;8.80;99.90;;;;;;4967680;28;20413;-78
2023/03/19 01:38:29;;;;;;;7.65;3.63;;;8.80;99.90;;;;;;4975260;28;20045;-78
2023/03/19 01:40:55;;;;;;;6.93;3.05;;;8.90;99.90;;;;;;4970202;28;20058;-78
2023/03/19 01:43:26;;;;;;;9.35;3.00;;;9.00;99.90;;;;;;4976531;28;20038;-78
2023/03/19 01:46:00;;;;;;;8.65;2.75;;;9.00;99.90;;;;;;4969104;28;20918;-78
2023/03/19 01:48:38;;;;;;;6.97;2.80;;;9.00;99.90;;;;;;4986791;28;20047;-76
2023/03/19 01:51:06;;;;;;;8.32;3.35;;;9.10;99.90;;;;;;4967537;28;20030;-78
2023/03/19 01:53:34;;;;;;;8.15;2.70;;;9.20;99.90;;;;;;4972039;28;20370;-78
2023/03/19 01:56:07;;;;;;;5.35;2.72;;;9.20;99.90;;;;;;4970869;28;20126;-78
2023/03/19 01:58:33;;;;;;;6.20;2.90;;;9.30;99.90;;;;;;4967981;28;20054;-78
2023/03/19 02:00:59;;;;;;;9.35;2.95;;;9.30;99.90;;;;;;4977081;28;20092;-78
2023/03/19 02:03:25;;;;;;;6.68;2.38;;;9.40;99.90;;;;;;4992195;28;20030;-78
2023/03/19 02:05:52;;;;;;;7.18;2.40;;;9.40;99.90;;;;;;4958301;28;20039;-77
2023/03/19 02:08:19;;;;;;;4.38;2.47;;;9.40;99.90;;;;;;4973453;28;20030;-77
2023/03/19 02:10:46;;;;;;;5.15;2.17;;;9.40;99.90;;;;;;4975703;28;20045;-77
2023/03/19 02:13:12;;;;;;;4.97;2.30;;;9.40;99.90;;;;;;4968275;28;20063;-77
2023/03/19 02:15:38;;;;;;;3.65;2.00;;;9.40;99.90;;;;;;4971690;28;20081;-77
2023/03/19 02:18:05;;;;;;;4.10;2.30;;;9.40;99.90;;;;;;4971833;28;20402;-79
2023/03/19 02:20:38;;;;;;;8.40;2.00;;;9.50;99.90;;;;;;4948225;28;20043;-77
2023/03/19 02:23:21;;;;;;;5.80;2.30;;;9.50;99.90;;;;;;4967416;28;20534;-80
2023/03/19 02:25:46;;;;;;;7.90;2.65;;;9.50;99.90;;;;;;4956407;28;20069;-77
2023/03/19 02:28:14;;;;;;;3.80;2.13;;;9.60;99.90;;;;;;4981411;28;20343;-78
2023/03/19 02:30:42;;;;;;;7.10;2.35;;;9.50;99.90;;;;;;4972272;28;20042;-80
2023/03/19 02:33:17;;;;;;;6.25;2.05;;;9.50;99.90;;;;;;4988939;28;20088;-80
2023/03/19 02:35:45;;;;;;;7.05;2.53;;;9.50;99.90;;;;;;4987720;28;20042;-79
2023/03/19 02:38:12;;;;;;;4.88;2.55;;;9.50;99.90;;;;;;4981082;28;20068;-80
2023/03/19 02:40:45;;;;;;;4.15;2.28;;;9.50;99.90;;;;;;4969498;28;20089;-79
2023/03/19 02:43:11;;;;;;;4.68;2.65;;;9.40;99.90;;;;;;4980587;28;20532;-80
2023/03/19 02:45:36;;;;;;;4.15;2.33;;;9.30;99.90;;;;;;4981019;28;20031;-79
2023/03/19 02:48:02;;;;;;;3.72;2.35;;;9.30;99.90;;;;;;4967523;28;20049;-81
2023/03/19 02:50:28;;;;;;;8.60;2.80;;;9.30;99.90;;;;;;4966569;28;20027;-79
2023/03/19 02:52:53;;;;;;;3.25;2.08;;;9.30;99.90;;;;;;4977841;28;20093;-79
2023/03/19 02:55:20;;;;;;;4.55;2.33;;;9.30;99.90;;;;;;4966155;28;20034;-80
2023/03/19 02:57:46;;;;;;;3.95;1.75;;;9.20;99.90;;;;;;4983231;28;20355;-79
2023/03/19 03:00:12;;;;;;;3.72;1.60;;;9.00;99.90;;;;;;4978919;28;20114;-79
2023/03/19 03:02:38;;;;;;;2.38;1.60;;;8.90;99.90;;;;;;4973708;28;20026;-79
2023/03/19 03:05:05;;;;;;;2.55;1.50;;;8.90;99.90;;;;;;4968202;28;20055;-78
2023/03/19 03:07:31;;;;;;;2.13;1.55;;;8.80;99.90;;;;;;4981392;28;20037;-79
2023/03/19 03:09:57;;;;;;;2.65;1.80;;;8.80;99.90;;;;;;4983569;28;20030;-78
2023/03/19 03:12:22;;;;;;;1.80;1.38;;;8.80;99.90;;;;;;4976610;28;20029;-78
2023/03/19 03:14:48;;;;;;;1.45;1.35;;;8.80;99.90;;;;;;4978182;28;20140;-77
2023/03/19 03:17:14;;;;;;;1.77;1.50;;;8.70;99.90;;;;;;4967975;28;20075;-78
2023/03/19 03:19:40;;;;;;;3.08;1.67;;;8.70;99.90;;;;;;4978567;28;21030;-78
2023/03/19 03:22:06;;;;;;;3.90;1.60;;;8.60;99.90;;;;;;4969038;28;20036;-78
2023/03/19 03:24:32;;;;;;;2.63;1.77;;;8.60;99.90;;;;;;4986770;28;20279;-78
2023/03/19 03:26:58;;;;;;;2.17;1.30;;;8.50;99.90;;;;;;4988189;28;20169;-78
2023/03/19 03:29:23;;;;;;;2.35;1.65;;;8.40;99.90;;;;;;4982920;28;20081;-78
2023/03/19 03:31:49;;;;;;;2.13;1.67;;;8.30;99.90;;;;;;4981918;28;20140;-78
2023/03/19 03:34:15;;;;;;;2.10;1.70;;;8.30;99.90;;;;;;4965560;28;20034;-78
2023/03/19 03:36:41;;;;;;;2.58;1.42;;;8.30;99.90;;;;;;4977739;28;20026;-77
2023/03/19 03:39:06;;;;;;;2.20;1.25;;;8.30;99.90;;;;;;4954655;28;20855;-78
2023/03/19 03:41:32;;;;;;;3.08;1.48;;;8.30;99.90;;;;;;4966862;28;20145;-78
2023/03/19 03:43:57;;;;;;;3.20;1.65;;;8.30;99.90;;;;;;4974441;28;20078;-78
2023/03/19 03:46:23;;;;;;;2.17;1.55;;;8.20;99.90;;;;;;4984069;28;20045;-77
2023/03/19 03:48:50;;;;;;;2.58;1.55;;;8.30;99.90;;;;;;4986458;28;20025;-78
2023/03/19 03:51:17;;;;;;;3.13;1.40;;;8.30;99.90;;;;;;4977742;28;20223;-78
2023/03/19 03:53:42;;;;;;;1.48;1.38;;;8.30;99.90;;;;;;4990443;28;20133;-78
2023/03/19 03:56:08;;;;;;;3.17;1.45;;;8.30;99.90;;;;;;4975053;28;20106;-79
2023/03/19 03:58:34;;;;;;;5.50;1.50;;;8.30;99.90;;;;;;4987382;28;20026;-78
2023/03/19 04:01:00;;;;;;;3.63;1.30;;;8.20;99.90;;;;;;4986903;28;20039;-77
2023/03/19 04:03:25;;;;;;;2.38;1.30;;;8.20;99.90;;;;;;4979391;28;20080;-78
2023/03/19 04:05:51;;;;;;;3.65;1.38;;;8.20;99.90;;;;;;4981559;28;20432;-77
2023/03/19 04:08:17;;;;;;;4.85;1.17;;;8.20;99.90;;;;;;4979719;28;20026;-78
2023/03/19 04:10:43;;;;;;;4.90;1.40;;;8.20;99.90;;;;;;4987164;28;20115;-78
2023/03/19 04:13:10;;;;;;;2.80;1.20;;;8.20;99.90;;;;;;4975874;28;20062;-77
2023/03/19 04:15:36;;;;;;;2.78;1.08;;;8.20;99.90;;;;;;4982107;28;20053;-77
2023/03/19 04:18:02;;;;;;;4.07;1.20;;;8.20;99.90;;;;;;4967180;28;20108;-78
2023/03/19 04:20:28;;;;;;;4.03;1.30;;;8.10;99.90;;;;;;4963978;28;20034;-77
2023/03/19 04:22:54;;;;;;;3.42;1.00;;;8.10;99.90;;;;;;4979647;28;20343;-77
2023/03/19 04:25:20;;;;;;;4.70;1.30;;;8.10;99.90;;;;;;4969168;28;20487;-77
2023/03/19 04:27:46;;;;;;;5.40;1.20;;;7.90;99.90;;;;;;4987231;28;20179;-77
2023/03/19 04:30:12;;;;;;;4.25;1.00;;;7.80;99.90;;;;;;4970324;28;20523;-77
2023/03/19 04:32:37;;;;;;;5.55;1.10;;;7.90;99.90;;;;;;4982078;28;20026;-77
2023/03/19 04:35:03;;;;;;;3.83;1.27;;;7.90;99.90;;;;;;4993327;28;20046;-78
2023/03/19 04:37:30;;;;;;;3.67;1.30;;;7.90;99.90;;;;;;4987437;28;20082;-78
2023/03/19 04:39:55;;;;;;;3.10;1.20;;;8.00;99.90;;;;;;4990633;28;20041;-78
2023/03/19 04:42:21;;;;;;;3.03;1.08;;;8.00;99.90;;;;;;4969145;28;20518;-78
2023/03/19 04:44:47;;;;;;;10.43;1.55;;;8.00;99.90;;;;;;4970855;28;20116;-78
2023/03/19 04:47:13;;;;;;;3.88;1.27;;;8.00;99.90;;;;;;4972431;28;20482;-78
2023/03/19 04:49:38;;;;;;;5.68;1.25;;;8.00;99.90;;;;;;4962807;28;20125;-79
2023/03/19 04:52:04;;;;;;;3.95;1.60;;;7.90;99.90;;;;;;4972871;28;20023;-77
2023/03/19 04:54:30;;;;;;;3.95;1.40;;;7.90;99.90;;;;;;4980565;28;20034;-78
2023/03/19 04:56:56;;;;;;;4.72;1.70;;;7.90;99.90;;;;;;4982484;28;20038;-78
2023/03/19 04:59:22;;;;;;;5.85;1.25;;;7.90;99.90;;;;;;4992900;28;20034;-78
2023/03/19 05:01:47;;;;;;;3.03;1.20;;;7.80;99.90;;;;;;4965129;28;20046;-79
2023/03/19 05:04:13;;;;;;;3.72;1.15;;;7.80;99.90;;;;;;4990692;28;20046;-78
2023/03/19 05:06:39;;;;;;;4.50;1.40;;;7.70;99.90;;;;;;4986342;28;20290;-78
2023/03/19 05:09:06;;;;;;;3.58;1.38;;;7.60;99.90;;;;;;4998489;28;20093;-78
2023/03/19 05:11:32;;;;;;;4.07;1.40;;;7.60;99.90;;;;;;4992384;28;20034;-78
2023/03/19 05:13:57;;;;;;;3.75;1.40;;;7.70;99.90;;;;;;4974067;28;20052;-79
2023/03/19 05:16:23;;;;;;;1.73;1.30;;;7.70;99.90;;;;;;4986927;28;20033;-78
2023/03/19 05:18:49;;;;;;;5.57;1.40;;;7.70;99.90;;;;;;4988216;28;20029;-78
2023/03/19 05:21:14;;;;;;;2.60;1.25;;;7.70;99.90;;;;;;4974313;28;20090;-78
2023/03/19 05:23:41;;;;;;;4.30;1.52;;;7.70;99.90;;;;;;4967358;28;20143;-79
2023/03/19 05:26:07;;;;;;;3.75;1.20;;;7.70;99.90;;;;;;4978503;28;20027;-78
2023/03/19 05:28:33;;;;;;;8.15;1.63;;;7.70;99.90;;;;;;4984894;28;20030;-78
2023/03/19 05:30:59;;;;;;;6.95;1.38;;;7.60;99.90;;;;;;4973154;28;20031;-78
2023/03/19 05:33:25;;;;;;;4.18;1.40;;;7.60;99.90;;;;;;4980872;28;20112;-78
2023/03/19 05:35:51;;;;;;;6.68;1.52;;;7.60;99.90;;;;;;4976315;28;20030;-78
2023/03/19 05:38:18;;;;;;;5.35;1.63;;;7.60;99.90;;;;;;4959903;28;20101;-78
2023/03/19 05:40:44;;;;;;;6.75;1.88;;;7.60;99.90;;;;;;4987816;28;20046;-78
2023/03/19 05:43:10;;;;;;;6.63;1.52;;;7.60;99.90;;;;;;4972994;28;20022;-78
2023/03/19 05:45:37;;;;;;;6.43;1.55;;;7.60;99.90;;;;;;4965480;28;20034;-77
2023/03/19 05:48:04;;;;;;;4.07;1.48;;;7.60;99.90;;;;;;4983057;28;20481;-78
2023/03/19 05:50:30;;;;;;;5.35;1.40;;;7.50;99.90;;;;;;4993947;28;20026;-78
2023/03/19 05:52:56;;;;;;;3.08;1.25;;;7.40;99.90;;;;;;4987672;28;20034;-78
2023/03/19 05:55:22;;;;;;;2.63;1.25;;;7.20;99.90;;;;;;4969509;28;20034;-78
2023/03/19 05:57:48;;;;;;;3.10;1.10;;;7.00;99.90;;;;;;4992803;28;20077;-78
2023/03/19 06:00:14;;;;;;;7.65;1.30;;;6.80;99.90;;;;;;4972857;28;20074;-78
2023/03/19 06:02:41;;;;;;;4.88;1.40;;;6.60;99.90;;;;;;4965455;28;20031;-79
2023/03/19 06:05:08;;;;;;;5.70;1.20;;;6.50;99.90;;;;;;4975210;28;20497;-78
2023/03/19 06:07:34;;;;;;;6.47;1.42;;;6.40;99.90;;;;;;4983647;28;20410;-78
2023/03/19 06:09:59;;;;;;;3.60;1.25;;;6.30;99.90;;;;;;4993569;28;20026;-78
2023/03/19 06:12:25;;;;;;;5.82;1.23;;;6.20;99.90;;;;;;4984615;28;20057;-78
2023/03/19 06:14:51;;;;;;;6.45;1.30;;;6.10;99.90;;;;;;4994387;28;20513;-78
2023/03/19 06:17:17;;;;;;;4.38;1.10;;;6.10;99.90;;;;;;4986218;28;20095;-78
2023/03/19 06:19:43;;;;;;;5.50;1.02;;;6.00;99.90;;;;;;4969540;28;20038;-78
2023/03/19 06:22:08;;;;;;;3.13;1.08;;;5.90;99.90;;;;;;4977043;28;20753;-77
2023/03/19 06:24:34;;;;;;;5.00;1.15;;;5.90;99.90;;;;;;4985331;28;20494;-78
2023/03/19 06:27:00;;;;;;;4.90;1.15;;;5.90;99.90;;;;;;4972946;28;20038;-78
2023/03/19 06:29:26;;;;;;;3.35;0.93;;;5.90;99.90;;;;;;4972574;28;20069;-78
2023/03/19 06:31:51;;;;;;;3.20;0.98;;;5.90;99.90;;;;;;4961531;28;20035;-78
2023/03/19 06:34:17;;;;;;;4.20;1.17;;;6.40;99.90;;;;;;4988797;28;20113;-78
2023/03/19 06:36:43;;;;;;;4.22;1.02;;;7.30;99.90;;;;;;4976630;28;20330;-78
2023/03/19 06:39:09;;;;;;;2.17;0.85;;;8.10;99.90;;;;;;4961991;28;20076;-78
2023/03/19 06:41:36;;;;;;;2.15;0.80;;;8.80;99.90;;;;;;5003102;28;20113;-78
2023/03/19 06:44:02;;;;;;;3.42;1.00;;;8.90;99.90;;;;;;4997835;28;20057;-78
2023/03/19 06:46:27;;;;;;;6.88;1.17;;;9.30;99.90;;;;;;4973839;28;20483;-78
2023/03/19 06:48:53;;;;;;;4.53;0.88;;;9.90;99.90;;;;;;4982732;28;20023;-78
2023/03/19 06:51:19;;;;;;;5.30;1.17;;;10.30;99.90;;;;;;4992698;28;20034;-78
2023/03/19 06:53:45;;;;;;;6.05;1.17;;;10.30;99.90;;;;;;4981492;28;20097;-78
2023/03/19 06:56:11;;;;;;;4.82;0.88;;;10.20;99.90;;;;;;4965322;28;20494;-78
2023/03/19 06:58:36;;;;;;;2.05;0.80;;;10.70;99.90;;;;;;4974471;28;20090;-78
2023/03/19 07:01:03;;;;;;;3.80;0.80;;;10.80;99.90;;;;;;4979217;28;20486;-78
2023/03/19 07:03:28;;;;;;;6.22;0.90;;;10.70;99.90;;;;;;4980521;28;20513;-77
2023/03/19 07:05:54;;;;;;;9.00;4.80;;;11.10;99.30;;;;;;4970892;28;20070;-79
2023/03/19 07:08:20;;;;;;;111.40;53.17;;;11.60;97.80;;;;;;4965623;28;20030;-79
2023/03/19 07:10:45;;;;;;;13.07;5.32;;;11.80;95.00;;;;;;4984906;28;20030;-78
2023/03/19 07:13:11;;;;;;;4.65;1.80;;;11.90;93.50;;;;;;4986256;28;20692;-79
2023/03/19 07:15:37;;;;;;;6.07;1.00;;;12.50;90.40;;;;;;4979478;28;20030;-79
2023/03/19 07:18:03;;;;;;;4.57;1.55;;;13.10;84.40;;;;;;4983947;28;20038;-79
2023/03/19 07:20:29;;;;;;;3.97;1.13;;;13.20;80.00;;;;;;4971840;28;20047;-79
2023/03/19 07:22:54;;;;;;;4.05;0.90;;;13.20;80.30;;;;;;4994853;28;20092;-79
2023/03/19 07:25:20;;;;;;;89.50;49.38;;;13.30;82.10;;;;;;4969431;28;20414;-79
2023/03/19 07:27:46;;;;;;;13.77;6.20;;;13.40;78.40;;;;;;4984639;28;20031;-79
2023/03/19 07:30:13;;;;;;;3.72;1.20;;;13.30;79.00;;;;;;4985278;28;20034;-79
2023/03/19 07:32:38;;;;;;;4.07;1.20;;;13.20;80.40;;;;;;4974015;28;20394;-78
2023/03/19 07:35:06;;;;;;;2.08;0.60;;;13.10;81.60;;;;;;4985009;28;20038;-78
2023/03/19 07:37:32;;;;;;;4.32;0.90;;;13.00;81.20;;;;;;4968429;28;20026;-78
2023/03/19 07:39:57;;;;;;;583.75;339.55;;;13.10;79.40;;;;;;4966678;28;20472;-79
2023/03/19 07:42:23;;;;;;;39.33;18.35;;;12.90;82.70;;;;;;4983037;28;20030;-79
2023/03/19 07:44:49;;;;;;;9.25;2.20;;;12.60;86.60;;;;;;4969871;28;20307;-78
2023/03/19 07:47:14;;;;;;;5.85;1.38;;;12.50;88.20;;;;;;4981469;28;20490;-79
2023/03/19 07:49:40;;;;;;;6.38;1.23;;;12.80;83.70;;;;;;4982539;28;20038;-78
2023/03/19 07:52:06;;;;;;;3.58;0.93;;;13.40;80.70;;;;;;4968857;28;20035;-78
2023/03/19 07:54:32;;;;;;;5.07;1.02;;;14.10;75.80;;;;;;4978879;28;20061;-77
2023/03/19 07:56:57;;;;;;;163.07;76.32;;;14.70;70.10;;;;;;4971599;28;20065;-78
2023/03/19 07:59:23;;;;;;;7.10;1.55;;;15.30;62.20;;;;;;4970893;28;20034;-77
2023/03/19 08:01:49;;;;;;;6.22;1.38;;;15.50;60.70;;;;;;4970686;28;20030;-78
2023/03/19 08:04:15;;;;;;;3.95;1.02;;;15.40;61.20;;;;;;4987257;28;20442;-78
2023/03/19 08:06:41;;;;;;;3.08;0.93;;;15.00;63.70;;;;;;4971341;28;20030;-78
2023/03/19 08:09:08;;;;;;;6.78;1.10;;;15.30;63.00;;;;;;4974431;28;20041;-78
2023/03/19 08:11:34;;;;;;;4.20;1.00;;;15.90;59.30;;;;;;4979660;28;20035;-77
2023/03/19 08:13:59;;;;;;;2.55;0.70;;;17.70;55.10;;;;;;4979323;28;20133;-77
2023/03/19 08:16:25;;;;;;;4.05;1.20;;;19.10;50.00;;;;;;4973222;28;20045;-78
2023/03/19 08:18:51;;;;;;;2.60;1.02;;;19.60;48.90;;;;;;4973463;28;20058;-78
2023/03/19 08:21:17;;;;;;;3.90;1.10;;;20.70;45.80;;;;;;4971900;28;20069;-78
2023/03/19 08:23:42;;;;;;;3.15;0.77;;;21.90;42.60;;;;;;4978139;28;20030;-77
2023/03/19 08:26:08;;;;;;;3.85;1.10;;;23.50;39.60;;;;;;4978544;28;20030;-79
2023/03/19 08:28:34;;;;;;;3.55;0.88;;;25.10;37.10;;;;;;4964260;28;20756;-79
2023/03/19 08:31:11;;;;;;;3.78;1.00;;;26.60;34.20;;;;;;4982927;28;20224;-79
2023/03/19 08:33:38;;;;;;;4.47;0.93;;;28.00;33.40;;;;;;4963055;28;20243;-79
2023/03/19 08:36:09;;;;;;;4.03;1.00;;;27.90;31.10;;;;;;4969281;28;20022;-79
2023/03/19 08:38:35;;;;;;;6.18;1.05;;;28.80;30.90;;;;;;4968120;28;20062;-79
2023/03/19 08:41:03;;;;;;;7.03;1.00;;;29.60;29.80;;;;;;4978348;28;20125;-80
2023/03/19 08:43:30;;;;;;;6.10;1.13;;;30.50;29.10;;;;;;4971103;28;20491;-80
2023/03/19 08:45:56;;;;;;;5.07;1.00;;;30.80;28.00;;;;;;4969621;28;20630;-80
2023/03/19 08:48:22;;;;;;;8.95;4.80;;;31.70;27.60;;;;;;4969111;28;20027;-79
2023/03/19 08:50:59;;;;;;;6.57;2.03;;;30.90;27.50;;;;;;4970614;28;20080;-80
2023/03/19 08:53:25;;;;;;;6.07;1.17;;;29.40;25.90;;;;;;4968358;28;20035;-80
2023/03/19 08:55:59;;;;;;;5.72;1.10;;;28.90;28.40;;;;;;4970589;28;20537;-79
2023/03/19 08:58:26;;;;;;;7.90;1.23;;;28.90;28.50;;;;;;4971506;28;20026;-79
2023/03/19 09:00:52;;;;;;;6.03;1.40;;;29.10;29.10;;;;;;4978012;28;20050;-79
2023/03/19 09:03:19;;;;;;;4.57;0.70;;;29.70;28.00;;;;;;4982100;28;20033;-79
2023/03/19 09:05:45;;;;;;;5.50;1.35;;;29.40;27.80;;;;;;4978987;28;20396;-80
2023/03/19 09:08:11;;;;;;;4.75;1.17;;;27.50;28.60;;;;;;4984189;28;20363;-79
2023/03/19 09:10:37;;;;;;;15.23;4.00;;;27.70;30.80;;;;;;4975334;28;20066;-80
2023/03/19 09:13:03;;;;;;;4.57;1.20;;;26.10;29.60;;;;;;4975158;28;20222;-79
2023/03/19 09:15:29;;;;;;;5.47;1.20;;;26.00;31.60;;;;;;4962034;28;20271;-79
2023/03/19 09:17:55;;;;;;;5.20;1.08;;;26.50;30.10;;;;;;4966463;28;20055;-79
2023/03/19 09:20:20;;;;;;;3.60;1.20;;;25.80;29.60;;;;;;4962528;28;20038;-80
2023/03/19 09:22:46;;;;;;;6.32;1.35;;;27.60;29.90;;;;;;4963666;28;20023;-79
2023/03/19 09:25:12;;;;;;;4.78;1.02;;;28.60;29.40;;;;;;4957133;28;20141;-79
2023/03/19 09:27:37;;;;;;;5.65;1.20;;;29.60;27.70;;;;;;4960038;28;20101;-80
2023/03/19 09:30:04;;;;;;;4.68;1.38;;;30.40;26.70;;;;;;4971967;28;20648;-80
2023/03/19 09:32:30;;;;;;;5.25;1.25;;;30.30;26.60;;;;;;4971171;28;20026;-80
2023/03/19 09:34:56;;;;;;;3.53;0.90;;;29.50;26.30;;;;;;4971401;28;20081;-80
2023/03/19 09:37:22;;;;;;;5.97;1.13;;;27.30;27.60;;;;;;4971642;28;20054;-81
2023/03/19 09:39:47;;;;;;;4.82;1.20;;;25.10;30.90;;;;;;4969228;28;20113;-81
2023/03/19 09:42:37;;;;;;;5.80;1.15;;;23.60;32.70;;;;;;4971083;28;20030;-80
2023/03/19 09:45:03;;;;;;;3.13;1.00;;;20.50;37.20;;;;;;4970233;28;20081;-80
2023/03/19 09:47:35;;;;;;;4.53;0.80;;;19.70;40.10;;;;;;4973336;28;20034;-79
2023/03/19 09:50:08;;;;;;;4.20;1.10;;;18.50;42.90;;;;;;4963468;28;20034;-79
2023/03/19 09:52:56;;;;;;;6.65;1.00;;;18.80;43.30;;;;;;4979235;28;20080;-80
2023/03/19 09:55:40;;;;;;;2.30;0.60;;;21.40;40.60;;;;;;4968396;28;20037;-79
2023/03/19 09:58:19;;;;;;;4.80;1.02;;;24.90;33.10;;;;;;4982499;28;20057;-79
2023/03/19 10:00:55;;;;;;;3.83;1.00;;;25.00;31.00;;;;;;4991566;28;20042;-79
2023/03/19 10:03:59;;;;;;;5.22;1.00;;;22.70;33.10;;;;;;4980146;28;20045;-79
2023/03/19 10:06:34;;;;;;;6.88;0.90;;;21.30;36.00;;;;;;4975825;28;20069;-80
2023/03/19 10:09:02;;;;;;;5.43;1.00;;;18.20;39.60;;;;;;4980442;28;20029;-80
2023/03/19 10:11:49;;;;;;;3.22;0.68;;;17.40;46.30;;;;;;4983000;28;20483;-79
2023/03/19 10:14:33;;;;;;;2.35;0.77;;;16.60;47.90;;;;;;4968960;28;20109;-79
2023/03/19 10:17:03;;;;;;;3.90;0.65;;;16.00;50.30;;;;;;4974762;28;20030;-79
2023/03/19 10:19:48;;;;;;;3.85;0.77;;;15.60;51.50;;;;;;4967423;28;20038;-80
2023/03/19 10:22:53;;;;;;;3.97;0.85;;;15.40;53.10;;;;;;4967151;28;20027;-79
2023/03/19 10:25:26;;;;;;;6.53;0.90;;;15.30;54.20;;;;;;4981373;28;20108;-79
2023/03/19 10:27:59;;;;;;;5.63;0.90;;;15.20;54.50;;;;;;4979853;28;20066;-79
2023/03/19 10:30:25;;;;;;;5.93;0.93;;;15.50;54.00;;;;;;4988719;28;20044;-78
2023/03/19 10:33:10;;;;;;;3.85;0.70;;;16.80;50.80;;;;;;4976819;28;20043;-78
2023/03/19 10:35:50;;;;;;;2.33;0.70;;;20.70;44.00;;;;;;4971644;28;20110;-79
2023/03/19 10:38:23;;;;;;;4.00;0.77;;;24.50;34.70;;;;;;4969571;28;20520;-79
2023/03/19 10:41:17;;;;;;;3.08;0.65;;;26.40;32.50;;;;;;4968834;28;20062;-79
2023/03/19 10:43:50;;;;;;;3.20;0.90;;;26.50;30.20;;;;;;4972991;28;20046;-80
2023/03/19 10:46:16;;;;;;;2.13;0.68;;;24.90;30.10;;;;;;4966296;28;20390;-79
2023/03/19 10:48:45;;;;;;;6.53;0.77;;;23.90;32.60;;;;;;4971623;28;20045;-79
2023/03/19 10:51:17;;;;;;;2.63;0.80;;;22.60;36.00;;;;;;4970815;28;20050;-79
2023/03/19 10:53:43;;;;;;;3.83;0.90;;;20.70;37.20;;;;;;4971276;28;20039;-79
2023/03/19 10:56:18;;;;;;;3.10;0.75;;;19.60;40.60;;;;;;4965790;28;20031;-80
2023/03/19 10:58:57;;;;;;;1.77;0.70;;;19.10;40.70;;;;;;4964291;28;20470;-80
2023/03/19 11:01:27;;;;;;;2.67;0.70;;;19.90;42.70;;;;;;4967222;28;20043;-79
2023/03/19 11:04:00;;;;;;;4.07;0.77;;;20.20;39.70;;;;;;4948466;28;20051;-79
2023/03/19 11:06:36;;;;;;;5.40;0.95;;;19.90;42.40;;;;;;4965341;28;20046;-79
2023/03/19 11:09:07;;;;;;;3.85;0.80;;;19.80;41.40;;;;;;4962489;28;20364;-80
2023/03/19 11:11:43;;;;;;;3.33;0.60;;;19.50;42.40;;;;;;4972601;28;20031;-80
2023/03/19 11:14:31;;;;;;;2.15;0.60;;;19.70;43.40;;;;;;4978086;28;20097;-79
2023/03/19 11:17:14;;;;;;;3.33;0.70;;;19.50;42.70;;;;;;4993789;28;20018;-79
2023/03/19 11:19:47;;;;;;;4.30;0.80;;;21.30;41.60;;;;;;4989490;28;20045;-79
2023/03/19 11:22:20;;;;;;;2.88;0.77;;;22.30;38.50;;;;;;4991386;28;20038;-79
2023/03/19 11:24:50;;;;;;;3.08;0.70;;;22.50;39.10;;;;;;4983416;28;20030;-79
2023/03/19 11:27:15;;;;;;;4.20;0.80;;;22.40;37.30;;;;;;4981430;28;20512;-79
2023/03/19 11:29:43;;;;;;;3.65;0.73;;;22.20;38.50;;;;;;4978054;28;20038;-79
2023/03/19 11:32:24;;;;;;;3.97;0.90;;;22.80;39.60;;;;;;4994296;28;20455;-79
2023/03/19 11:35:00;;;;;;;3.55;0.73;;;22.70;35.70;;;;;;4992066;28;20490;-79
2023/03/19 11:37:40;;;;;;;3.15;0.73;;;21.60;38.10;;;;;;4977304;28;20513;-79
2023/03/19 11:40:33;;;;;;;4.93;0.98;;;20.50;39.50;;;;;;4975361;28;20135;-79
2023/03/19 11:43:04;;;;;;;4.07;0.88;;;19.30;43.60;;;;;;4975520;28;20035;-79
2023/03/19 11:46:04;;;;;;;2.42;1.08;;;18.50;43.70;;;;;;4990852;28;20061;-80
2023/03/19 11:49:05;;;;;;;3.25;0.77;;;18.60;45.30;;;;;;4969711;28;20030;-80
2023/03/19 11:51:35;;;;;;;3.47;0.68;;;18.60;44.70;;;;;;4946372;28;20034;-79
2023/03/19 11:54:05;;;;;;;4.75;0.68;;;19.40;42.50;;;;;;4975959;28;20466;-80
2023/03/19 11:56:43;;;;;;;1.58;0.80;;;19.60;43.10;;;;;;4980001;28;20353;-80
2023/03/19 11:59:16;;;;;;;4.32;0.90;;;19.30;42.50;;;;;;4981590;28;20038;-79
2023/03/19 12:02:26;;;;;;;4.70;1.00;;;17.80;41.40;;;;;;4963641;28;20045;-80
2023/03/19 12:04:58;;;;;;;2.53;0.60;;;16.80;45.00;;;;;;4946011;28;20058;-80
2023/03/19 12:07:26;;;;;;;5.00;0.80;;;16.10;49.00;;;;;;4994196;28;20160;-80
2023/03/19 12:09:58;;;;;;;1.23;0.50;;;15.90;48.70;;;;;;4987041;28;20383;-79
2023/03/19 12:12:43;;;;;;;;;;;15.60;48.00;;;;;;4980205;28;20068;-81
2023/03/19 12:15:42;;;;;;;1.65;0.60;;;15.60;48.70;;;;;;5002879;28;20364;-81
2023/03/19 12:18:26;;;;;;;4.43;0.63;;;15.70;48.00;;;;;;4988535;28;20030;-82
2023/03/19 12:20:58;;;;;;;2.15;0.50;;;15.90;49.20;;;;;;4995716;28;20049;-82
2023/03/19 12:23:51;;;;;;;1.92;0.57;;;15.60;48.30;;;;;;4984261;28;20034;-81
2023/03/19 12:26:36;;;;;;;3.70;0.85;;;15.70;50.00;;;;;;4981403;28;20038;-82
2023/03/19 12:29:26;;;;;;;2.28;0.63;;;15.80;51.00;;;;;;4984736;28;20079;-81
2023/03/19 12:32:31;;;;;;;1.95;0.52;;;15.30;48.20;;;;;;4999900;28;20501;-81
2023/03/19 12:35:05;;;;;;;2.38;0.60;;;15.00;48.30;;;;;;4964518;28;20064;-81
2023/03/19 12:37:52;;;;;;;2.17;0.52;;;15.10;50.00;;;;;;4985476;28;20062;-83
2023/03/19 12:40:42;;;;;;;2.88;0.70;;;15.40;49.50;;;;;;4982224;28;20203;-80
2023/03/19 12:43:44;;;;;;;1.65;0.55;;;15.60;49.60;;;;;;4968729;28;20030;-81
2023/03/19 12:46:12;;;;;;;6.82;0.93;;;15.60;49.80;;;;;;4978394;28;20105;-81
2023/03/19 12:48:50;;;;;;;5.55;0.90;;;16.10;51.00;;;;;;4963386;28;20516;-82
2023/03/19 12:51:20;;;;;;;2.22;0.57;;;16.20;49.10;;;;;;4957987;28;20055;-83
2023/03/19 12:53:58;;;;;;;2.40;0.68;;;16.40;48.70;;;;;;4961862;28;20030;-83
2023/03/19 12:56:37;;;;;;;2.70;0.50;;;16.70;48.30;;;;;;4962976;28;20062;-82
2023/03/19 12:59:15;;;;;;;4.03;0.90;;;16.50;48.10;;;;;;4974967;28;20894;-83
2023/03/19 13:01:52;;;;;;;2.50;0.70;;;16.30;49.50;;;;;;4984741;28;20494;-82